Promitheas — SYIJ — position and weather

sailwx.info

Track history (hours):
 
Tides and Currents Weather Stations Pressure Air Temp Water Temp Dewpoint Dewpoint Depression Visibility Wind Speed Wind Dir Waves Ship Positions

Promitheas

Last reported at 2015-Mar-06 03:12 UTC. Time now 2015-Mar-06 21:42 UTC.
Position N 56°15' E 018°39'.

Length 249 m; draft 8.5 m.

Type: Tanker. MMSI: 240547000.

Date/timePositionNaut miles runAvg speedWind from/ knotsBaromVisibWave heightAir tempDewpointWater temp
2015-Mar-06 03:12N 56°15' E 018°39'910.6
2015-Mar-06 02:19N 56°10' E 018°24'910.8
2015-Mar-06 01:30N 56°06' E 018°11'1010.9
2015-Mar-06 00:33N 56°00' E 017°55'9710.7
2015-Mar-05 15:31N 55°32' E 015°11'1010.5
2015-Mar-05 14:34N 55°28' E 014°55'1010.4
2015-Mar-05 13:33N 55°24' E 014°38'1010.5
2015-Mar-05 12:33N 55°15' E 014°27'1010.4
2015-Mar-05 11:33N 55°07' E 014°16'1010.2
2015-Mar-05 10:33N 54°60' E 014°04'1110.6
2015-Mar-05 09:33N 54°56' E 013°46'1110.6
2015-Mar-05 08:33N 54°53' E 013°28'1211.1
2015-Mar-05 07:30N 54°49' E 013°09'1111.5
2015-Mar-05 06:33N 54°46' E 012°51'1111.0
2015-Mar-05 05:33N 54°42' E 012°34'1110.8
2015-Mar-05 04:33N 54°35' E 012°19'1111.2
2015-Mar-05 03:33N 54°25' E 012°10'1312.8
2015-Mar-05 02:33N 54°25' E 011°48'1313.1
2015-Mar-05 01:33N 54°30' E 011°27'1313.4
2015-Mar-05 00:33N 54°36' E 011°07'12610.5
2015-Mar-04 12:34N 56°41' E 011°43'9 9.0
2015-Mar-04 11:34N 56°49' E 011°49'1111.2
2015-Mar-04 10:34N 56°60' E 011°42'1010.5
2015-Mar-04 09:34N 57°10' E 011°36'1110.8
2015-Mar-04 08:34N 57°20' E 011°29'1110.8
2015-Mar-04 07:34N 57°30' E 011°20'1111.4
2015-Mar-04 06:33N 57°37' E 011°05'1010.3
2015-Mar-04 05:33N 57°45' E 010°51'1110.6
2015-Mar-04 04:33N 57°47' E 010°32'6811.3
2015-Mar-03 22:30N 57°24' E 008°32'217 9.9
2015-Mar-03 00:34N 54°17' E 005°13'9 8.9
2015-Mar-02 23:33N 54°11' E 005°02'9 8.9
2015-Mar-02 22:33N 54°05' E 004°52'126 8.2
2015-Mar-02 07:09N 52°07' E 003°36'610.0
2015-Mar-02 06:33N 52°04' E 003°45'9 9.1
2015-Mar-02 05:34N 52°01' E 003°59'9 9.2
2015-Mar-02 04:33N 51°56' E 004°11'1 0.9
2015-Mar-02 03:29N 51°55' E 004°12'0 0.0
2015-Mar-02 02:32N 51°55' E 004°12'0 0.0
2015-Mar-02 01:32N 51°55' E 004°12'0 0.0
2015-Mar-02 00:32N 51°55' E 004°12'0 0.0
2015-Mar-01 23:29N 51°55' E 004°12'0 0.0
2015-Mar-01 22:20N 51°55' E 004°12'0 0.0
2015-Mar-01 21:32N 51°55' E 004°12'0 0.0
2015-Mar-01 20:23N 51°55' E 004°12'0 0.0
2015-Mar-01 17:32N 51°55' E 004°12'0 0.0
2015-Mar-01 16:29N 51°55' E 004°12'0 0.0
2015-Mar-01 15:26N 51°55' E 004°12'0 0.0
2015-Mar-01 14:26N 51°55' E 004°12'0 0.0
2015-Mar-01 13:32N 51°55' E 004°12'0 0.0
2015-Mar-01 12:32N 51°55' E 004°12'0 0.0
2015-Mar-01 11:20N 51°55' E 004°12'0 0.0
2015-Mar-01 10:20N 51°55' E 004°12'0 0.0
2015-Mar-01 08:29N 51°55' E 004°12'0 0.0
2015-Mar-01 06:29N 51°55' E 004°12'0 0.0
2015-Mar-01 05:20N 51°55' E 004°12'0 0.0
2015-Mar-01 04:14N 51°55' E 004°12'0 0.0
2015-Mar-01 03:32N 51°55' E 004°12'0 0.0
2015-Mar-01 02:26N 51°55' E 004°12'0 0.0
2015-Mar-01 01:32N 51°55' E 004°12'0 0.0
2015-Mar-01 00:26N 51°55' E 004°12'0 0.0
2015-Feb-28 22:17N 51°55' E 004°12'0 0.0
2015-Feb-28 21:26N 51°55' E 004°12'0 0.0
2015-Feb-28 20:33N 51°55' E 004°12'0 0.4
2015-Feb-28 19:33N 51°56' E 004°12'4 3.9
2015-Feb-28 18:33N 51°58' E 004°07'6 5.8
2015-Feb-28 17:33N 52°00' E 003°59'10 9.9
2015-Feb-28 16:30N 51°58' E 003°42'1311.3
2015-Feb-28 15:24N 51°55' E 003°22'6 2.1
2015-Feb-28 12:32N 51°57' E 003°13'0 0.0
2015-Feb-28 11:22N 51°57' E 003°13'0 0.0
2015-Feb-28 10:24N 51°57' E 003°13'0 0.0
2015-Feb-28 09:17N 51°57' E 003°13'0 0.0
2015-Feb-28 08:17N 51°57' E 003°13'0 0.1
2015-Feb-28 06:21N 51°57' E 003°12'0 0.2
2015-Feb-28 05:33N 51°57' E 003°12'0 0.0
2015-Feb-28 04:27N 51°57' E 003°12'0 0.2
2015-Feb-28 03:25N 51°57' E 003°12'0 0.1
2015-Feb-28 02:17N 51°57' E 003°12'0 0.1
2015-Feb-28 01:28N 51°57' E 003°13'0 0.0
2015-Feb-28 00:33N 51°57' E 003°13'0 0.0
2015-Feb-27 23:23N 51°57' E 003°13'0 0.0
2015-Feb-27 22:33N 51°57' E 003°13'0 0.0
2015-Feb-27 20:16N 51°57' E 003°13'0 0.1
2015-Feb-27 18:29N 51°57' E 003°13'0 0.0
2015-Feb-27 09:31N 51°57' E 003°13'0 0.1
2015-Feb-27 05:09N 51°57' E 003°13'0 0.0
2015-Feb-26 21:33N 51°57' E 003°13'0 0.0
2015-Feb-26 20:21N 51°57' E 003°13'2 2.3
2015-Feb-26 19:27N 51°55' E 003°12'43910.4
2015-Feb-25 01:14N 57°50' E 010°41'811.3
2015-Feb-25 00:32N 57°45' E 010°52'1212.4
2015-Feb-24 23:33N 57°37' E 011°08'1313.2
2015-Feb-24 22:33N 57°28' E 011°26'1313.2
2015-Feb-24 21:33N 57°15' E 011°34'1313.0
2015-Feb-24 20:31N 57°03' E 011°43'1313.5
2015-Feb-24 19:33N 56°50' E 011°51'1212.1
2015-Feb-24 18:33N 56°38' E 011°47'12411.3
2015-Feb-24 07:32N 54°37' E 010°56'1312.9
2015-Feb-24 06:33N 54°34' E 011°17'1313.5
2015-Feb-24 05:33N 54°28' E 011°38'1313.0
2015-Feb-24 04:33N 54°26' E 011°60'1111.3
2015-Feb-24 03:33N 54°33' E 012°15'  
Track history (hours):
 
Tides and Currents Weather Stations Pressure Air Temp Water Temp Dewpoint Dewpoint Depression Visibility Wind Speed Wind Dir Waves Ship Positions

Promitheas

Last reported at 2015-Mar-06 03:12 UTC. Time now 2015-Mar-06 21:42 UTC.
Position N 56°15' E 018°39'.

Length 249 m; draft 8.5 m.

Type: Tanker. MMSI: 240547000.

Date/timePositionNaut miles runAvg speedWind from/ knotsBaromVisibWave heightAir tempDewpointWater temp
2015-Mar-06 03:12N 56°15' E 018°39'910.6
2015-Mar-06 02:19N 56°10' E 018°24'910.8
2015-Mar-06 01:30N 56°06' E 018°11'1010.9
2015-Mar-06 00:33N 56°00' E 017°55'9710.7
2015-Mar-05 15:31N 55°32' E 015°11'1010.5
2015-Mar-05 14:34N 55°28' E 014°55'1010.4
2015-Mar-05 13:33N 55°24' E 014°38'1010.5
2015-Mar-05 12:33N 55°15' E 014°27'1010.4
2015-Mar-05 11:33N 55°07' E 014°16'1010.2
2015-Mar-05 10:33N 54°60' E 014°04'1110.6
2015-Mar-05 09:33N 54°56' E 013°46'1110.6
2015-Mar-05 08:33N 54°53' E 013°28'1211.1
2015-Mar-05 07:30N 54°49' E 013°09'1111.5
2015-Mar-05 06:33N 54°46' E 012°51'1111.0
2015-Mar-05 05:33N 54°42' E 012°34'1110.8
2015-Mar-05 04:33N 54°35' E 012°19'1111.2
2015-Mar-05 03:33N 54°25' E 012°10'1312.8
2015-Mar-05 02:33N 54°25' E 011°48'1313.1
2015-Mar-05 01:33N 54°30' E 011°27'1313.4
2015-Mar-05 00:33N 54°36' E 011°07'12610.5
2015-Mar-04 12:34N 56°41' E 011°43'9 9.0
2015-Mar-04 11:34N 56°49' E 011°49'1111.2
2015-Mar-04 10:34N 56°60' E 011°42'1010.5
2015-Mar-04 09:34N 57°10' E 011°36'1110.8
2015-Mar-04 08:34N 57°20' E 011°29'1110.8
2015-Mar-04 07:34N 57°30' E 011°20'1111.4
2015-Mar-04 06:33N 57°37' E 011°05'1010.3
2015-Mar-04 05:33N 57°45' E 010°51'1110.6
2015-Mar-04 04:33N 57°47' E 010°32'6811.3
2015-Mar-03 22:30N 57°24' E 008°32'217 9.9
2015-Mar-03 00:34N 54°17' E 005°13'9 8.9
2015-Mar-02 23:33N 54°11' E 005°02'9 8.9
2015-Mar-02 22:33N 54°05' E 004°52'126 8.2
2015-Mar-02 07:09N 52°07' E 003°36'610.0
2015-Mar-02 06:33N 52°04' E 003°45'9 9.1
2015-Mar-02 05:34N 52°01' E 003°59'9 9.2
2015-Mar-02 04:33N 51°56' E 004°11'1 0.9
2015-Mar-02 03:29N 51°55' E 004°12'0 0.0
2015-Mar-02 02:32N 51°55' E 004°12'0 0.0
2015-Mar-02 01:32N 51°55' E 004°12'0 0.0
2015-Mar-02 00:32N 51°55' E 004°12'0 0.0
2015-Mar-01 23:29N 51°55' E 004°12'0 0.0
2015-Mar-01 22:20N 51°55' E 004°12'0 0.0
2015-Mar-01 21:32N 51°55' E 004°12'0 0.0
2015-Mar-01 20:23N 51°55' E 004°12'0 0.0
2015-Mar-01 17:32N 51°55' E 004°12'0 0.0
2015-Mar-01 16:29N 51°55' E 004°12'0 0.0
2015-Mar-01 15:26N 51°55' E 004°12'0 0.0
2015-Mar-01 14:26N 51°55' E 004°12'0 0.0
2015-Mar-01 13:32N 51°55' E 004°12'0 0.0
2015-Mar-01 12:32N 51°55' E 004°12'0 0.0
2015-Mar-01 11:20N 51°55' E 004°12'0 0.0
2015-Mar-01 10:20N 51°55' E 004°12'0 0.0
2015-Mar-01 08:29N 51°55' E 004°12'0 0.0
2015-Mar-01 06:29N 51°55' E 004°12'0 0.0
2015-Mar-01 05:20N 51°55' E 004°12'0 0.0
2015-Mar-01 04:14N 51°55' E 004°12'0 0.0
2015-Mar-01 03:32N 51°55' E 004°12'0 0.0
2015-Mar-01 02:26N 51°55' E 004°12'0 0.0
2015-Mar-01 01:32N 51°55' E 004°12'0 0.0
2015-Mar-01 00:26N 51°55' E 004°12'0 0.0
2015-Feb-28 22:17N 51°55' E 004°12'0 0.0
2015-Feb-28 21:26N 51°55' E 004°12'0 0.0
2015-Feb-28 20:33N 51°55' E 004°12'0 0.4
2015-Feb-28 19:33N 51°56' E 004°12'4 3.9
2015-Feb-28 18:33N 51°58' E 004°07'6 5.8
2015-Feb-28 17:33N 52°00' E 003°59'10 9.9
2015-Feb-28 16:30N 51°58' E 003°42'1311.3
2015-Feb-28 15:24N 51°55' E 003°22'6 2.1
2015-Feb-28 12:32N 51°57' E 003°13'0 0.0
2015-Feb-28 11:22N 51°57' E 003°13'0 0.0
2015-Feb-28 10:24N 51°57' E 003°13'0 0.0
2015-Feb-28 09:17N 51°57' E 003°13'0 0.0
2015-Feb-28 08:17N 51°57' E 003°13'0 0.1
2015-Feb-28 06:21N 51°57' E 003°12'0 0.2
2015-Feb-28 05:33N 51°57' E 003°12'0 0.0
2015-Feb-28 04:27N 51°57' E 003°12'0 0.2
2015-Feb-28 03:25N 51°57' E 003°12'0 0.1
2015-Feb-28 02:17N 51°57' E 003°12'0 0.1
2015-Feb-28 01:28N 51°57' E 003°13'0 0.0
2015-Feb-28 00:33N 51°57' E 003°13'0 0.0
2015-Feb-27 23:23N 51°57' E 003°13'0 0.0
2015-Feb-27 22:33N 51°57' E 003°13'0 0.0
2015-Feb-27 20:16N 51°57' E 003°13'0 0.1
2015-Feb-27 18:29N 51°57' E 003°13'0 0.0
2015-Feb-27 09:31N 51°57' E 003°13'0 0.1
2015-Feb-27 05:09N 51°57' E 003°13'0 0.0
2015-Feb-26 21:33N 51°57' E 003°13'0 0.0
2015-Feb-26 20:21N 51°57' E 003°13'2 2.3
2015-Feb-26 19:27N 51°55' E 003°12'43910.4
2015-Feb-25 01:14N 57°50' E 010°41'811.3
2015-Feb-25 00:32N 57°45' E 010°52'1212.4
2015-Feb-24 23:33N 57°37' E 011°08'1313.2
2015-Feb-24 22:33N 57°28' E 011°26'1313.2
2015-Feb-24 21:33N 57°15' E 011°34'1313.0
2015-Feb-24 20:31N 57°03' E 011°43'1313.5
2015-Feb-24 19:33N 56°50' E 011°51'1212.1
2015-Feb-24 18:33N 56°38' E 011°47'12411.3
2015-Feb-24 07:32N 54°37' E 010°56'1312.9
2015-Feb-24 06:33N 54°34' E 011°17'1313.5
2015-Feb-24 05:33N 54°28' E 011°38'1313.0
2015-Feb-24 04:33N 54°26' E 011°60'1111.3
2015-Feb-24 03:33N 54°33' E 012°15'  

Dump ship's entire track history